Αναφορές Αεροδρομίων

 

KSJC - San Jose, California, USA
Distance from station: ΒΑ 14km
Ενημερώθηκε: 22/07/2024 13:53
Αίθριος
Αίθριος
 Ανεμος από ΝΝΑ
Ανεμος: ΝΝΑ 7 km/h
Θερμοκρασία: 18°C
Σημείο Δρόσου: 12°C
Υγρασία: 68%
Βαρόμετρο: 1010.8 hPa
Clouds: Αίθριος
Visibility: 16 km
2024/07/22 10:53 KSJC 221053Z AUTO 15004KT 10SM CLR 18/12 A2985 RMK AO2 SLP106 T01780122
KNUQ - Moffett Nas/Mtn, California, USA
Distance from station: Β 14km
Ενημερώθηκε: 22/07/2024 13:50
Αίθριος
Αίθριος
 Ανεμος από calm
Ανεμος: Απνοια
Θερμοκρασία: 16°C
Σημείο Δρόσου: 14°C
Υγρασία: 88%
Βαρόμετρο: 1010.8 hPa
Clouds: Αίθριος
Visibility: 14 km
2024/07/22 10:50 KNUQ 221050Z AUTO 00000KT 9SM CLR 16/14 A2985 RMK AO2
 
KPAO - Palo Alto, California, USA
Distance from station: ΒΒΔ 23km
Ενημερώθηκε: 22/07/2024 06:47
NOT Current
Αίθριος
Αίθριος
 Ανεμος από ΒΒΔ
Ανεμος: ΒΒΔ 13 km/h
Θερμοκρασία: 17°C
Σημείο Δρόσου: 14°C
Υγρασία: 83%
Βαρόμετρο: 1011.9 hPa
Clouds: Αίθριος
Visibility: 16 km
2024/07/22 03:47 KPAO 220347Z 34007KT 10SM SKC 17/14 A2988 RMK LAST
KRHV - San Jose/Reid, California, USA
Distance from station: ΑΒΑ 19km
Ενημερώθηκε: 22/07/2024 07:55
NOT Current
Αίθριος
Αίθριος
 Ανεμος από ΒΔ
Ανεμος: ΒΔ 6 km/h
Θερμοκρασία: 19°C
Σημείο Δρόσου: 13°C
Υγρασία: 68%
Βαρόμετρο: 1012.2 hPa
Clouds: Αίθριος
Visibility: 16 km
2024/07/22 04:55 KRHV 220455Z 31003KT 10SM SKC 19/13 A2989 RMK LAST
 
KOAK - Oakland, California, USA
Distance from station: ΒΒΔ 50km
Ενημερώθηκε: 22/07/2024 13:53
Few Clouds
Few Clouds
 Ανεμος από ΒΒΑ
Ανεμος: ΒΒΑ 7 km/h
Θερμοκρασία: 14°C
Σημείο Δρόσου: 13°C
Υγρασία: 94%
Βαρόμετρο: 1011.2 hPa
Clouds: Few Clouds
Visibility: 16 km
Cloud details: Few Clouds 305 m
2024/07/22 10:53 KOAK 221053Z 02004KT 10SM FEW010 14/13 A2986 RMK AO2 SLP110 T01390128
KSQL - San Carlos Airpo, California, USA
Distance from station: ΒΔ 34km
Ενημερώθηκε: 22/07/2024 13:55

 Ανεμος από ΒΔ
Ανεμος: ΒΔ 6 km/h
Θερμοκρασία: 15°C
Σημείο Δρόσου: 13°C
Υγρασία: 88%
Βαρόμετρο: 1011.2 hPa
2024/07/22 10:55 KSQL 221055Z AUTO 32003KT 15/13 A2986 RMK AO2
 
KSFO - San Francisco, California, USA
Distance from station: ΒΔ 49km
Ενημερώθηκε: 22/07/2024 13:56
Few Clouds
Few Clouds
 Ανεμος από ΔΒΔ
Ανεμος: ΔΒΔ 11 km/h
Θερμοκρασία: 12°C
Σημείο Δρόσου: 11°C
Υγρασία: 94%
Βαρόμετρο: 1010.5 hPa
Clouds: Few Clouds
Visibility: 16 km
Cloud details: Few Clouds 152 m
2024/07/22 10:56 KSFO 221056Z 29006KT 10SM FEW005 12/11 A2984 RMK AO2 SLP106 T01220111 $
KE16 - San Martin, California, USA
Distance from station: ΑΝΑ 43km
Ενημερώθηκε: 22/07/2024 13:35
Συννεφιά
Συννεφιά
 Ανεμος από ΝΑ
Ανεμος: ΝΑ 13 km/h
Θερμοκρασία: 13°C
Σημείο Δρόσου: 12°C
Υγρασία: 94%
Βαρόμετρο: 1012.2 hPa
Clouds: Συννεφιά
Visibility: 14 km
Cloud details: Συννεφιά 122 m
2024/07/22 10:35 KE16 221035Z AUTO 13007KT 9SM OVC004 13/12 A2989 RMK AO2 PWINO PNO
 
KWVI - Watsonville, California, USA
Distance from station: ΝΝΑ 44km
Ενημερώθηκε: 22/07/2024 13:53
Mist, Συννεφιά
Mist, Συννεφιά
 Ανεμος από ΝΑ
Ανεμος: ΝΑ 7 km/h
Θερμοκρασία: 13°C
Σημείο Δρόσου: 12°C
Υγρασία: 94%
Βαρόμετρο: 1012.2 hPa
Περίληψη: Mist
Clouds: Συννεφιά
Visibility: 6 km
Cloud details: Συννεφιά 91 m
2024/07/22 10:53 KWVI 221053Z AUTO 14004KT 4SM BR OVC003 13/12 A2989 RMK AO2 SLP120 T01280122
KHAF - Half Moon Bay, California, USA
Distance from station: ΔΒΔ 50km
Ενημερώθηκε: 22/07/2024 13:55
Mist, Συννεφιά
Mist, Συννεφιά
 Ανεμος από ΝΑ
Ανεμος: ΝΑ 19 km/h
Θερμοκρασία: 12°C
Σημείο Δρόσου: 12°C
Υγρασία: 100%
Βαρόμετρο: 1011.5 hPa
Περίληψη: Mist
Clouds: Συννεφιά
Visibility: 3 km
Cloud details: Συννεφιά 91 m
2024/07/22 10:55 KHAF 221055Z AUTO 14010KT 2SM BR OVC003 12/12 A2987 RMK AO2
 
KHWD - Hayward, California, USA
Distance from station: Β 44km
Ενημερώθηκε: 22/07/2024 13:54
Αίθριος
Αίθριος
 Ανεμος από Β
Ανεμος: Β 7 km/h
Θερμοκρασία: 14°C
Σημείο Δρόσου: 12°C
Υγρασία: 88%
Βαρόμετρο: 1010.5 hPa
Clouds: Αίθριος
Visibility: 16 km
2024/07/22 10:54 KHWD 221054Z AUTO 35004KT 10SM CLR 14/12 A2984 RMK AO2 SLP115 T01390117
KLVK - Livermore, California, USA
Distance from station: ΒΒΑ 51km
Ενημερώθηκε: 22/07/2024 13:53
Αίθριος
Αίθριος
 Ανεμος από ΒΒΔ
Ανεμος: ΒΒΔ 6 km/h
Θερμοκρασία: 17°C
Σημείο Δρόσου: 12°C
Υγρασία: 73%
Βαρόμετρο: 1010.2 hPa
Clouds: Αίθριος
Visibility: 13 km
2024/07/22 10:53 KLVK 221053Z AUTO 34003KT 8SM CLR 17/12 A2983 RMK AO2 SLP097 T01670122 $